Time;durP1;ratioP1;P1;durP2;ratioP2;P2;SDS_P1;SDS_P2;PMS_P1;PMS_P2;Temp;Humidity;BMP_temperature;BMP_pressure;BME280_temperature;BME280_humidity;BME280_pressure;Samples;Min_cycle;Max_cycle;Signal;HPM_P1;HPM_P2
2021/05/29 00:02:15;;;;;;;0.30;0.20;;;;;;;11.51;95.20;100862.47;5030746;28;20458;-49
2021/05/29 00:04:42;;;;;;;0.30;0.20;;;;;;;11.48;94.72;100863.41;5031107;28;20455;-49
2021/05/29 00:07:10;;;;;;;0.40;0.37;;;;;;;11.20;96.79;100856.97;5031630;28;20471;-49
2021/05/29 00:09:37;;;;;;;0.30;0.20;;;;;;;11.62;94.78;100870.22;5031493;28;20517;-49
2021/05/29 00:12:07;;;;;;;0.30;0.20;;;;;;;11.01;97.92;100868.94;5030945;28;20992;-49
2021/05/29 00:14:35;;;;;;;0.30;0.20;;;;;;;11.08;97.35;100862.56;5031218;28;20447;-49
2021/05/29 00:17:02;;;;;;;0.30;0.20;;;;;;;11.29;96.96;100870.09;5030442;28;20471;-49
2021/05/29 00:19:29;;;;;;;0.30;0.20;;;;;;;11.10;97.47;100874.03;5011249;28;20456;-49
2021/05/29 00:21:56;;;;;;;0.30;0.20;;;;;;;10.79;98.89;100877.34;5027223;28;20451;-49
2021/05/29 00:24:22;;;;;;;0.40;0.30;;;;;;;11.09;98.80;100881.13;5022437;28;20447;-49
2021/05/29 00:26:49;;;;;;;0.30;0.20;;;;;;;10.90;98.66;100879.78;5030821;28;20529;-50
2021/05/29 00:29:16;;;;;;;0.30;0.20;;;;;;;10.91;99.02;100878.88;5031358;28;20506;-49
2021/05/29 00:31:43;;;;;;;0.40;0.30;;;;;;;11.06;98.25;100885.66;5030692;28;20593;-49
2021/05/29 00:34:10;;;;;;;0.30;0.20;;;;;;;10.63;99.77;100881.22;5030842;28;20498;-50
2021/05/29 00:36:36;;;;;;;0.30;0.20;;;;;;;10.91;97.89;100879.75;5030928;28;20452;-50
2021/05/29 00:39:05;;;;;;;0.73;0.60;;;;;;;10.70;98.85;100885.50;5030780;28;20510;-50
2021/05/29 00:41:32;;;;;;;0.40;0.37;;;;;;;10.80;98.70;100886.19;5030543;28;20933;-50
2021/05/29 00:43:59;;;;;;;0.40;0.30;;;;;;;10.84;97.48;100872.81;5030761;28;20932;-49
2021/05/29 00:46:25;;;;;;;0.30;0.20;;;;;;;10.83;97.00;100886.16;5030455;28;20509;-49
2021/05/29 00:48:52;;;;;;;0.30;0.20;;;;;;;10.30;99.95;100880.94;5022326;28;20510;-49
2021/05/29 00:51:19;;;;;;;0.30;0.20;;;;;;;10.28;99.83;100884.50;5019959;28;20495;-49
2021/05/29 00:53:47;;;;;;;0.30;0.20;;;;;;;10.55;99.61;100886.69;5044775;28;20937;-50
2021/05/29 00:56:13;;;;;;;0.30;0.20;;;;;;;10.24;100.00;100886.34;5030876;28;20460;-49
2021/05/29 00:58:41;;;;;;;0.30;0.20;;;;;;;10.18;100.00;100883.78;5017353;28;20477;-50
2021/05/29 01:01:08;;;;;;;0.30;0.20;;;;;;;10.24;100.00;100881.03;5030686;28;20563;-50
2021/05/29 01:03:37;;;;;;;0.30;0.20;;;;;;;10.12;100.00;100886.53;5025592;28;20479;-50
2021/05/29 01:06:05;;;;;;;0.30;0.20;;;;;;;9.68;100.00;100885.47;5022990;28;20505;-50
2021/05/29 01:08:32;;;;;;;0.30;0.20;;;;;;;9.65;100.00;100885.53;5032850;28;20478;-50
2021/05/29 01:10:59;;;;;;;0.30;0.20;;;;;;;9.84;100.00;100896.72;5033609;28;20486;-49
2021/05/29 01:13:31;;;;;;;0.30;0.20;;;;;;;9.60;100.00;100887.38;5034519;28;20451;-49
2021/05/29 01:16:05;;;;;;;0.90;0.60;;;;;;;9.78;100.00;100892.41;5032738;28;20448;-49
2021/05/29 01:18:32;;;;;;;2.00;1.90;;;;;;;10.11;100.00;100879.47;5026078;28;20464;-50
2021/05/29 01:21:01;;;;;;;0.30;0.20;;;;;;;9.75;100.00;100884.50;5029141;28;20949;-50
2021/05/29 01:23:28;;;;;;;0.40;0.30;;;;;;;9.68;100.00;100893.44;5033936;28;20560;-49
2021/05/29 01:25:56;;;;;;;0.30;0.20;;;;;;;9.53;100.00;100892.78;5033923;28;20452;-49
2021/05/29 01:28:27;;;;;;;0.30;0.20;;;;;;;9.68;100.00;100885.47;5034033;28;20507;-50
2021/05/29 01:31:00;;;;;;;0.30;0.20;;;;;;;9.54;100.00;100889.22;5032992;28;20447;-49
2021/05/29 01:33:31;;;;;;;0.30;0.20;;;;;;;9.56;100.00;100893.63;5029643;28;20459;-50
2021/05/29 01:36:01;;;;;;;0.30;0.20;;;;;;;9.25;100.00;100890.53;5034550;28;20447;-49
2021/05/29 01:38:28;;;;;;;0.30;0.20;;;;;;;9.24;100.00;100904.69;5034194;28;20496;-49
2021/05/29 01:41:04;;;;;;;0.30;0.20;;;;;;;9.59;100.00;100901.53;5033700;28;20451;-50
2021/05/29 01:43:34;;;;;;;0.30;0.20;;;;;;;9.23;100.00;100902.94;5033793;28;20447;-49
2021/05/29 01:46:00;;;;;;;0.30;0.20;;;;;;;9.14;100.00;100898.63;5033604;28;20871;-49
2021/05/29 01:48:33;;;;;;;0.30;0.20;;;;;;;9.23;100.00;100899.41;5032949;28;20563;-49
2021/05/29 01:51:01;;;;;;;0.30;0.20;;;;;;;8.99;100.00;100901.47;5024999;28;20942;-50
2021/05/29 01:53:28;;;;;;;0.30;0.20;;;;;;;9.05;100.00;100900.53;5015233;28;20809;-50
2021/05/29 01:55:55;;;;;;;0.30;0.20;;;;;;;9.15;100.00;100910.97;5033276;28;20524;-49
2021/05/29 01:58:21;;;;;;;0.30;0.20;;;;;;;9.17;100.00;100905.66;5020034;28;20508;-49
2021/05/29 02:00:48;;;;;;;0.57;0.57;;;;;;;8.92;100.00;100913.06;5033107;28;20483;-50
2021/05/29 02:03:14;;;;;;;0.30;0.20;;;;;;;8.69;100.00;100909.78;5033268;28;20487;-50
2021/05/29 02:05:41;;;;;;;0.30;0.20;;;;;;;8.74;100.00;100915.88;5033466;28;20451;-49
2021/05/29 02:08:10;;;;;;;0.30;0.20;;;;;;;8.76;100.00;100914.97;5032766;28;20844;-49
2021/05/29 02:10:40;;;;;;;0.30;0.20;;;;;;;8.71;100.00;100914.16;5033061;28;20448;-50
2021/05/29 02:13:11;;;;;;;0.30;0.20;;;;;;;8.53;100.00;100914.38;5032934;28;20951;-51
2021/05/29 02:15:40;;;;;;;0.30;0.20;;;;;;;8.54;100.00;100909.03;5032938;28;20444;-50
2021/05/29 02:18:09;;;;;;;0.30;0.20;;;;;;;8.85;100.00;100911.34;5027954;28;20858;-50
2021/05/29 02:20:52;;;;;;;0.30;0.20;;;;;;;8.73;100.00;100915.03;5021747;28;20521;-49
2021/05/29 02:23:21;;;;;;;0.30;0.30;;;;;;;8.59;100.00;100915.16;5013817;28;20499;-49
2021/05/29 02:25:49;;;;;;;0.30;0.20;;;;;;;8.67;100.00;100917.75;5027812;28;20858;-50
2021/05/29 02:28:17;;;;;;;0.30;0.20;;;;;;;8.57;100.00;100916.09;5033249;28;21035;-49
2021/05/29 02:30:45;;;;;;;0.30;0.20;;;;;;;8.38;100.00;100918.03;5033376;28;20510;-50
2021/05/29 02:33:12;;;;;;;0.30;0.20;;;;;;;8.45;100.00;100919.72;5032345;28;20494;-50
2021/05/29 02:35:39;;;;;;;0.30;0.20;;;;;;;8.55;100.00;100909.94;5031315;28;20478;-51
2021/05/29 02:38:07;;;;;;;0.30;0.20;;;;;;;8.32;100.00;100910.09;5032704;28;20467;-50
2021/05/29 02:40:34;;;;;;;0.30;0.20;;;;;;;8.49;100.00;100913.50;5032327;28;20937;-50
2021/05/29 02:43:01;;;;;;;0.30;0.20;;;;;;;8.32;100.00;100910.97;5031330;28;20515;-49
2021/05/29 02:45:29;;;;;;;0.30;0.20;;;;;;;8.35;100.00;100917.16;5032168;28;20475;-49
2021/05/29 02:47:56;;;;;;;0.30;0.20;;;;;;;8.33;100.00;100915.38;5032297;28;20479;-49
2021/05/29 02:50:24;;;;;;;0.30;0.20;;;;;;;8.38;100.00;100915.41;5028880;28;20449;-49
2021/05/29 02:52:52;;;;;;;0.30;0.20;;;;;;;8.26;100.00;100911.06;5022668;28;20447;-50
2021/05/29 02:55:23;;;;;;;0.30;0.20;;;;;;;8.23;100.00;100910.22;5032101;28;20459;-50
2021/05/29 02:57:54;;;;;;;0.30;0.20;;;;;;;8.14;100.00;100910.28;5020852;28;20472;-50
2021/05/29 03:00:28;;;;;;;0.30;0.20;;;;;;;8.17;100.00;100913.78;5031184;28;20454;-50
2021/05/29 03:02:55;;;;;;;0.30;0.20;;;;;;;8.01;100.00;100909.50;5032510;28;20476;-50
2021/05/29 03:05:22;;;;;;;0.30;0.20;;;;;;;7.86;100.00;100913.16;5013114;28;20456;-50
2021/05/29 03:07:51;;;;;;;0.30;0.20;;;;;;;8.12;100.00;100912.06;5026057;28;20484;-50
2021/05/29 03:10:20;;;;;;;0.30;0.20;;;;;;;8.09;100.00;100920.03;5032052;28;20458;-50
2021/05/29 03:12:52;;;;;;;0.30;0.20;;;;;;;7.88;100.00;100919.31;5031667;28;20506;-50
2021/05/29 03:15:21;;;;;;;0.30;0.20;;;;;;;7.71;100.00;100910.63;5032031;28;20505;-49
2021/05/29 03:17:48;;;;;;;0.30;0.20;;;;;;;7.84;100.00;100919.34;5030034;28;20503;-50
2021/05/29 03:20:17;;;;;;;0.30;0.20;;;;;;;7.64;100.00;100916.81;5012031;28;20543;-50
2021/05/29 03:22:44;;;;;;;0.30;0.20;;;;;;;7.62;100.00;100915.97;5027389;28;20484;-50
2021/05/29 03:25:12;;;;;;;0.30;0.20;;;;;;;7.61;100.00;100916.84;5031700;28;20800;-50
2021/05/29 03:27:39;;;;;;;0.30;0.20;;;;;;;7.76;100.00;100923.81;5031609;28;20471;-50
2021/05/29 03:30:10;;;;;;;0.30;0.20;;;;;;;7.95;100.00;100922.81;5031463;28;20569;-50
2021/05/29 03:32:38;;;;;;;0.30;0.20;;;;;;;7.85;100.00;100929.03;5030140;28;20463;-49
2021/05/29 03:35:07;;;;;;;0.30;0.20;;;;;;;8.02;100.00;100924.50;5028850;28;20538;-50
2021/05/29 03:37:34;;;;;;;0.30;0.20;;;;;;;7.86;100.00;100926.38;5031715;28;21046;-50
2021/05/29 03:40:00;;;;;;;0.30;0.20;;;;;;;7.81;100.00;100920.25;5030372;28;20872;-50
2021/05/29 03:42:27;;;;;;;0.30;0.20;;;;;;;7.87;100.00;100924.63;5031535;28;20487;-50
2021/05/29 03:44:54;;;;;;;0.30;0.20;;;;;;;7.86;100.00;100931.69;5031510;28;20451;-49
2021/05/29 03:47:20;;;;;;;0.30;0.20;;;;;;;7.91;100.00;100932.50;5031125;28;20561;-50
2021/05/29 03:49:47;;;;;;;0.67;0.40;;;;;;;7.81;100.00;100933.50;5031895;28;20448;-50
2021/05/29 03:52:13;;;;;;;0.30;0.20;;;;;;;7.90;100.00;100928.09;5018729;28;20450;-50
2021/05/29 03:54:40;;;;;;;0.30;0.20;;;;;;;7.79;100.00;100929.06;5031406;28;20452;-50
2021/05/29 03:57:07;;;;;;;0.33;0.27;;;;;;;7.96;100.00;100922.78;5025958;28;20480;-50
2021/05/29 03:59:34;;;;;;;0.30;0.20;;;;;;;7.81;100.00;100932.56;5023466;28;20932;-50
2021/05/29 04:02:00;;;;;;;0.30;0.20;;;;;;;7.91;100.00;100929.00;5031370;28;20448;-50
2021/05/29 04:04:27;;;;;;;0.57;0.57;;;;;;;7.92;100.00;100930.75;5031289;28;20497;-50
2021/05/29 04:06:53;;;;;;;0.30;0.20;;;;;;;8.04;100.00;100935.94;5031399;28;20456;-50
2021/05/29 04:09:20;;;;;;;0.30;0.20;;;;;;;8.15;100.00;100941.16;5031300;28;20452;-50
2021/05/29 04:11:47;;;;;;;0.30;0.20;;;;;;;8.12;100.00;100934.13;5031215;28;20501;-50
2021/05/29 04:14:13;;;;;;;0.30;0.20;;;;;;;8.06;100.00;100928.00;5030912;28;20517;-51
2021/05/29 04:16:40;;;;;;;0.30;0.20;;;;;;;8.04;100.00;100933.31;5031038;28;20455;-50
2021/05/29 04:19:07;;;;;;;0.30;0.20;;;;;;;8.00;100.00;100935.09;5026147;28;20906;-50
2021/05/29 04:21:33;;;;;;;0.30;0.20;;;;;;;8.00;100.00;100935.09;5030911;28;20447;-49
2021/05/29 04:24:00;;;;;;;0.30;0.20;;;;;;;8.22;100.00;100933.16;5030541;28;20514;-49
2021/05/29 04:26:26;;;;;;;0.30;0.20;;;;;;;8.03;100.00;100943.00;5030797;28;20456;-49
2021/05/29 04:28:53;;;;;;;0.30;0.20;;;;;;;8.20;100.00;100947.28;5030716;28;20472;-49
2021/05/29 04:31:21;;;;;;;0.30;0.20;;;;;;;8.60;100.00;100947.84;5030999;28;20456;-49
2021/05/29 04:33:47;;;;;;;0.30;0.20;;;;;;;9.59;100.00;100953.72;5028644;28;20513;-49
2021/05/29 04:36:14;;;;;;;0.30;0.20;;;;;;;10.53;98.67;100962.91;5026284;28;20551;-50
2021/05/29 04:38:41;;;;;;;0.30;0.20;;;;;;;11.16;94.36;100954.63;5028165;28;20998;-50
2021/05/29 04:41:07;;;;;;;0.30;0.20;;;;;;;11.97;90.77;100960.88;5031027;28;20459;-49
2021/05/29 04:43:34;;;;;;;0.30;0.20;;;;;;;12.19;88.24;100955.00;5032878;28;20487;-48
2021/05/29 04:46:01;;;;;;;0.30;0.20;;;;;;;12.35;88.10;100967.06;5033162;28;20448;-48
2021/05/29 04:48:28;;;;;;;0.30;0.20;;;;;;;12.51;87.63;100968.44;5034577;28;20541;-49
2021/05/29 04:51:13;;;;;;;0.30;0.20;;;;;;;12.73;86.69;100966.94;5027353;28;20612;-49
2021/05/29 04:53:44;;;;;;;0.40;0.40;;;;;;;12.78;86.29;100966.84;5031210;28;20446;-50
2021/05/29 04:56:11;;;;;;;0.30;0.20;;;;;;;12.78;86.43;100969.50;5034308;28;20509;-49
2021/05/29 04:58:38;;;;;;;0.30;0.20;;;;;;;13.36;84.06;100956.34;5021153;28;20474;-50
2021/05/29 05:01:07;;;;;;;0.30;0.20;;;;;;;13.69;83.70;100957.13;5034846;28;20506;-50
2021/05/29 05:03:38;;;;;;;0.30;0.20;;;;;;;13.61;83.29;100955.56;5034004;28;20866;-51
2021/05/29 05:06:05;;;;;;;0.30;0.20;;;;;;;13.75;82.27;100957.81;5034313;28;20472;-51
2021/05/29 05:08:32;;;;;;;0.30;0.20;;;;;;;13.95;81.42;100959.84;5033637;28;20492;-49
2021/05/29 05:11:00;;;;;;;0.40;0.30;;;;;;;13.99;80.43;100964.22;5034455;28;20451;-50
2021/05/29 05:13:28;;;;;;;0.30;0.20;;;;;;;13.78;81.76;100973.75;5033875;28;20447;-49
2021/05/29 05:15:54;;;;;;;0.30;0.20;;;;;;;14.03;80.70;100981.00;5034065;28;20525;-50
2021/05/29 05:18:22;;;;;;;2.30;1.33;;;;;;;14.39;79.89;100977.16;5027908;28;20511;-50
2021/05/29 05:20:51;;;;;;;0.53;0.53;;;;;;;14.45;78.88;100984.13;5028836;28;20448;-50
2021/05/29 05:23:21;;;;;;;0.30;0.20;;;;;;;14.72;79.97;100982.31;5033630;28;20545;-49
2021/05/29 05:25:51;;;;;;;0.40;0.20;;;;;;;14.63;79.47;100982.63;5033849;28;20448;-49
2021/05/29 05:28:28;;;;;;;0.30;0.20;;;;;;;14.79;78.53;100982.03;5033611;28;20498;-50
2021/05/29 05:30:56;;;;;;;0.50;0.43;;;;;;;15.13;78.35;100979.97;5033957;28;20490;-50
2021/05/29 05:33:25;;;;;;;0.30;0.20;;;;;;;15.28;77.19;100982.09;5033515;28;20937;-49
2021/05/29 05:35:53;;;;;;;0.40;0.30;;;;;;;14.64;78.40;100979.88;5032245;28;21015;-50
2021/05/29 05:38:21;;;;;;;0.30;0.20;;;;;;;15.09;78.52;100980.09;5033422;28;20475;-49
2021/05/29 05:40:47;;;;;;;0.30;0.20;;;;;;;15.13;77.80;100972.81;5033324;28;20452;-50
2021/05/29 05:43:15;;;;;;;0.30;0.20;;;;;;;15.32;77.00;100973.88;5033484;28;20487;-50
2021/05/29 05:45:41;;;;;;;0.30;0.20;;;;;;;15.29;77.93;100975.81;5033221;28;20819;-49
2021/05/29 05:48:08;;;;;;;0.30;0.20;;;;;;;15.76;76.94;100965.09;5033222;28;21062;-50
2021/05/29 05:50:35;;;;;;;0.30;0.20;;;;;;;15.76;75.52;100970.47;5028169;28;20448;-49
2021/05/29 05:53:01;;;;;;;0.40;0.20;;;;;;;15.61;76.80;100977.28;5024643;28;20493;-50
2021/05/29 05:55:28;;;;;;;0.40;0.20;;;;;;;15.38;76.23;100984.38;5033438;28;20444;-50
2021/05/29 05:57:55;;;;;;;0.40;0.20;;;;;;;15.79;77.18;100991.81;5021510;28;20557;-50
2021/05/29 06:00:21;;;;;;;0.40;0.20;;;;;;;15.81;76.30;100990.81;5031647;28;20937;-50
2021/05/29 06:02:49;;;;;;;0.40;0.20;;;;;;;15.55;76.21;101001.63;5032826;28;20503;-51
2021/05/29 06:05:17;;;;;;;0.40;0.30;;;;;;;15.51;77.34;101008.91;5033405;28;20471;-50
2021/05/29 06:07:43;;;;;;;0.40;0.20;;;;;;;15.82;77.06;101003.28;5033454;28;20471;-50
2021/05/29 06:10:11;;;;;;;0.50;0.50;;;;;;;16.05;76.14;101006.88;5033054;28;20459;-50
2021/05/29 06:12:42;;;;;;;0.40;0.20;;;;;;;16.18;76.59;101008.16;5033168;28;20447;-50
2021/05/29 06:20:36;;;;;;;0.40;0.20;;;;;;;16.04;77.30;101003.34;5024145;28;20789;-50
2021/05/29 06:23:03;;;;;;;0.40;0.20;;;;;;;16.64;74.64;101007.13;5033027;28;20491;-50
2021/05/29 06:25:29;;;;;;;0.50;0.40;;;;;;;16.47;76.27;101002.47;5033467;28;20506;-50
2021/05/29 06:27:56;;;;;;;0.40;0.20;;;;;;;16.82;74.40;101011.72;5032913;28;20476;-50
2021/05/29 06:30:23;;;;;;;0.43;0.43;;;;;;;16.70;75.28;101000.63;5032853;28;20455;-50
2021/05/29 06:32:49;;;;;;;0.40;0.20;;;;;;;16.54;76.17;101008.44;5031911;28;20447;-50
2021/05/29 06:35:16;;;;;;;0.40;0.20;;;;;;;16.32;76.89;101013.81;5033179;28;20501;-49
2021/05/29 06:37:43;;;;;;;0.40;0.20;;;;;;;17.03;74.23;101007.25;5032228;28;20471;-49
2021/05/29 06:40:10;;;;;;;0.40;0.20;;;;;;;17.10;73.34;101014.09;5032718;28;20448;-50
2021/05/29 06:42:36;;;;;;;0.40;0.20;;;;;;;17.15;73.47;101016.59;5032919;28;20518;-50
2021/05/29 06:45:04;;;;;;;0.40;0.20;;;;;;;17.19;74.05;101007.44;5032725;28;20452;-49
2021/05/29 06:47:31;;;;;;;0.40;0.20;;;;;;;17.26;72.83;101022.34;5032081;28;21038;-50
2021/05/29 06:49:58;;;;;;;0.40;0.20;;;;;;;17.34;73.02;101009.44;5032423;28;20798;-50
2021/05/29 06:52:28;;;;;;;0.40;0.20;;;;;;;17.39;73.86;101023.53;5025689;28;20456;-50
2021/05/29 07:00:11;;;;;;;0.40;0.27;;;;;;;17.81;72.57;101030.63;5016084;28;20816;-50
2021/05/29 07:02:37;;;;;;;0.40;0.20;;;;;;;17.31;73.14;101032.91;5032064;28;20447;-51
2021/05/29 07:05:08;;;;;;;1.47;0.77;;;;;;;16.96;74.76;101026.38;5030880;28;21023;-50
2021/05/29 07:07:35;;;;;;;0.40;0.20;;;;;;;16.82;75.34;101021.59;5031687;28;20573;-50
2021/05/29 07:10:05;;;;;;;0.40;0.20;;;;;;;17.43;73.03;101021.59;5031884;28;20979;-50
2021/05/29 07:12:35;;;;;;;0.40;0.20;;;;;;;17.69;71.96;101018.63;5032276;28;20443;-51
2021/05/29 07:15:02;;;;;;;0.40;0.20;;;;;;;17.91;70.86;101033.75;5028662;28;20466;-50
2021/05/29 07:17:32;;;;;;;0.40;0.20;;;;;;;17.60;69.70;101028.91;5030980;28;20846;-50
2021/05/29 07:19:59;;;;;;;0.40;0.20;;;;;;;17.84;69.14;101027.81;5012068;28;20460;-51
2021/05/29 07:22:26;;;;;;;0.40;0.20;;;;;;;18.19;66.65;101034.19;5011932;28;20453;-51
2021/05/29 07:24:52;;;;;;;0.40;0.20;;;;;;;17.91;65.41;101026.56;5031715;28;20545;-50
2021/05/29 07:27:19;;;;;;;0.40;0.20;;;;;;;17.75;66.58;101025.53;5031922;28;20472;-50
2021/05/29 07:29:46;;;;;;;0.40;0.20;;;;;;;17.76;65.93;101027.28;5031936;28;21010;-50
2021/05/29 07:32:12;;;;;;;0.40;0.20;;;;;;;17.80;63.77;101028.00;5031889;28;20505;-51
2021/05/29 07:34:39;;;;;;;0.40;0.20;;;;;;;17.96;64.04;101027.22;5028543;28;20444;-50
2021/05/29 07:37:08;;;;;;;0.40;0.20;;;;;;;17.99;64.33;101013.63;5029736;28;20621;-50
2021/05/29 07:39:35;;;;;;;0.40;0.20;;;;;;;18.22;63.21;101019.69;5032137;28;20502;-51
2021/05/29 07:42:02;;;;;;;0.40;0.20;;;;;;;18.33;62.70;101020.06;5031708;28;20448;-50
2021/05/29 07:44:29;;;;;;;0.40;0.20;;;;;;;18.34;62.50;101024.50;5031324;28;20483;-50
2021/05/29 07:46:56;;;;;;;0.40;0.20;;;;;;;18.01;63.73;101022.50;5031392;28;20464;-50
2021/05/29 07:49:22;;;;;;;0.40;0.20;;;;;;;18.28;63.54;101022.13;5031450;28;20436;-50
2021/05/29 07:52:10;;;;;;;0.40;0.20;;;;;;;18.60;63.40;101020.50;5018288;28;20937;-50
2021/05/29 07:54:37;;;;;;;0.40;0.20;;;;;;;18.45;63.52;101023.97;5031226;28;20483;-50
2021/05/29 07:57:05;;;;;;;0.40;0.20;;;;;;;18.67;61.25;101023.81;5026312;28;20480;-50
2021/05/29 07:59:31;;;;;;;0.40;0.20;;;;;;;18.34;60.88;101019.09;5024027;28;20451;-50
2021/05/29 08:01:58;;;;;;;0.40;0.20;;;;;;;18.24;60.25;101021.41;5031770;28;20455;-49
2021/05/29 08:04:25;;;;;;;0.40;0.20;;;;;;;18.49;61.18;101021.03;5031290;28;20523;-50
2021/05/29 08:06:52;;;;;;;0.40;0.20;;;;;;;18.69;60.18;101019.22;5031184;28;20451;-50
2021/05/29 08:09:19;;;;;;;0.40;0.20;;;;;;;18.47;59.89;101030.16;5031334;28;20451;-50
2021/05/29 08:11:46;;;;;;;0.40;0.20;;;;;;;18.25;60.36;101020.44;5031255;28;20451;-50
2021/05/29 08:14:13;;;;;;;0.40;0.20;;;;;;;18.94;60.22;101023.28;5031696;28;20447;-51
2021/05/29 08:16:40;;;;;;;0.40;0.20;;;;;;;18.53;60.31;101024.47;5032374;28;20509;-50
2021/05/29 08:19:17;;;;;;;0.40;0.20;;;;;;;18.70;60.19;101029.03;5022375;28;20511;-51
2021/05/29 08:21:46;;;;;;;0.40;0.30;;;;;;;18.99;60.95;101019.47;5019085;28;20443;-48
2021/05/29 08:24:13;;;;;;;0.40;0.20;;;;;;;18.99;60.89;101014.94;5021913;28;20546;-49
2021/05/29 08:26:40;;;;;;;0.40;0.20;;;;;;;19.17;60.10;101023.91;5035485;28;20447;-49
2021/05/29 08:29:07;;;;;;;0.40;0.20;;;;;;;18.63;57.66;101021.25;5035623;28;20509;-48
2021/05/29 08:31:34;;;;;;;0.40;0.20;;;;;;;18.92;57.67;101033.28;5035124;28;20863;-48
2021/05/29 08:34:02;;;;;;;0.40;0.20;;;;;;;19.43;57.45;101030.59;5035042;28;20470;-48
2021/05/29 08:36:29;;;;;;;0.40;0.20;;;;;;;19.46;60.03;101023.25;5034988;28;20949;-49
2021/05/29 08:39:00;;;;;;;0.40;0.20;;;;;;;19.45;58.34;101018.78;5034270;28;20467;-49
2021/05/29 08:41:27;;;;;;;0.40;0.20;;;;;;;18.91;58.53;101030.63;5035077;28;20451;-48
2021/05/29 08:43:54;;;;;;;0.40;0.20;;;;;;;19.28;56.69;101024.22;5034643;28;20988;-48
2021/05/29 08:46:21;;;;;;;0.40;0.20;;;;;;;18.68;58.79;101029.13;5050169;28;20901;-49
2021/05/29 08:48:48;;;;;;;0.40;0.20;;;;;;;19.28;58.37;101020.63;5034169;28;20883;-49
2021/05/29 08:51:17;;;;;;;0.40;0.20;;;;;;;19.04;59.30;101033.56;5024169;28;20456;-48
2021/05/29 08:53:52;;;;;;;0.50;0.50;;;;;;;18.88;58.08;101030.78;5032284;28;20448;-49
2021/05/29 08:56:23;;;;;;;0.40;0.20;;;;;;;19.13;57.73;101023.19;5034233;28;20455;-49
2021/05/29 08:58:51;;;;;;;0.40;0.20;;;;;;;19.52;58.84;101024.72;5021126;28;20467;-48
2021/05/29 09:01:19;;;;;;;0.40;0.20;;;;;;;18.96;57.76;101025.03;5034265;28;20513;-49
2021/05/29 09:03:49;;;;;;;0.40;0.20;;;;;;;19.44;57.64;101032.34;5033996;28;20490;-49
2021/05/29 09:06:32;;;;;;;0.40;0.30;;;;;;;18.86;56.39;101028.19;5034093;28;20451;-49
2021/05/29 09:09:08;;;;;;;0.40;0.20;;;;;;;18.91;57.41;101036.03;5033811;28;20475;-48
2021/05/29 09:11:47;;;;;;;0.40;0.20;;;;;;;19.10;55.96;101025.19;5034019;28;20874;-49
2021/05/29 09:14:29;;;;;;;0.40;0.20;;;;;;;19.52;56.26;101009.41;5034077;28;20440;-48
2021/05/29 09:16:59;;;;;;;0.40;0.27;;;;;;;19.39;55.83;101020.94;5034275;28;20489;-48
2021/05/29 09:19:26;;;;;;;0.40;0.20;;;;;;;19.04;55.43;101022.78;5019573;28;20483;-48
2021/05/29 09:21:52;;;;;;;0.40;0.20;;;;;;;19.19;54.85;101027.41;5033891;28;20510;-49
2021/05/29 09:24:19;;;;;;;0.40;0.20;;;;;;;19.90;55.37;101019.97;5033535;28;20580;-49
2021/05/29 09:26:55;;;;;;;0.40;0.20;;;;;;;19.62;55.50;101025.16;5033974;28;20505;-49
2021/05/29 09:29:23;;;;;;;0.50;0.40;;;;;;;19.65;56.07;101024.97;5032989;28;20498;-49
2021/05/29 09:31:53;;;;;;;0.40;0.20;;;;;;;19.90;55.58;101035.28;5033942;28;20455;-48
2021/05/29 09:34:42;;;;;;;0.60;0.60;;;;;;;19.91;55.11;101029.81;5034388;28;20792;-48
2021/05/29 09:37:15;;;;;;;0.40;0.20;;;;;;;19.76;54.41;101023.44;5034123;28;20522;-49
2021/05/29 09:39:50;;;;;;;0.40;0.20;;;;;;;19.41;54.48;101029.81;5034117;28;20451;-48
2021/05/29 09:42:18;;;;;;;0.40;0.20;;;;;;;20.63;54.59;101020.31;5033490;28;20530;-49
2021/05/29 09:44:45;;;;;;;0.40;0.20;;;;;;;21.08;53.47;101023.94;5033947;28;20483;-49
2021/05/29 09:47:17;;;;;;;0.40;0.20;;;;;;;20.01;53.44;101016.66;5033383;28;20491;-49
2021/05/29 09:49:49;;;;;;;0.40;0.20;;;;;;;19.98;54.40;101030.31;5033340;28;20538;-48
2021/05/29 09:52:36;;;;;;;0.40;0.20;;;;;;;19.69;55.02;101026.53;5020152;28;20510;-48
2021/05/29 09:55:07;;;;;;;0.40;0.20;;;;;;;20.08;55.67;101029.72;5033516;28;20447;-49
2021/05/29 09:57:57;;;;;;;0.70;0.70;;;;;;;19.32;56.95;101030.31;5024537;28;20480;-49
2021/05/29 10:00:42;;;;;;;0.40;0.20;;;;;;;19.68;56.56;101024.81;5023042;28;20455;-48
2021/05/29 10:03:09;;;;;;;0.40;0.20;;;;;;;19.46;56.45;101025.03;5020033;28;20456;-49
2021/05/29 10:05:37;;;;;;;0.40;0.20;;;;;;;20.02;53.62;101015.72;5032466;28;20491;-49
2021/05/29 10:08:12;;;;;;;0.40;0.20;;;;;;;19.32;54.77;101022.22;5033110;28;20857;-49
2021/05/29 10:10:40;;;;;;;0.40;0.20;;;;;;;19.78;54.04;101015.25;5031969;28;20490;-49
2021/05/29 10:13:07;;;;;;;0.40;0.20;;;;;;;19.64;55.79;101017.84;5033287;28;20510;-49
2021/05/29 10:15:34;;;;;;;0.40;0.30;;;;;;;20.23;56.01;101019.03;5033176;28;20859;-48
2021/05/29 10:18:03;;;;;;;0.40;0.20;;;;;;;19.65;53.16;101015.06;5029701;28;20526;-49
2021/05/29 10:20:35;;;;;;;0.40;0.30;;;;;;;20.24;53.23;101007.25;5024024;28;20777;-48
2021/05/29 10:23:05;;;;;;;0.40;0.20;;;;;;;20.92;50.59;101007.78;5033482;28;20456;-49
2021/05/29 10:25:31;;;;;;;0.40;0.20;;;;;;;21.11;49.73;101007.56;5033003;28;21050;-48
2021/05/29 10:27:58;;;;;;;0.40;0.20;;;;;;;20.88;49.79;101003.53;5032948;28;20601;-49
2021/05/29 10:30:26;;;;;;;0.40;0.20;;;;;;;20.56;51.00;101011.72;5032796;28;20478;-48
2021/05/29 10:33:19;;;;;;;0.40;0.20;;;;;;;19.86;48.73;101017.50;5032865;28;20517;-48
2021/05/29 10:35:46;;;;;;;0.40;0.20;;;;;;;20.15;47.29;101003.28;5032932;28;20440;-48
2021/05/29 10:38:14;;;;;;;0.40;0.20;;;;;;;20.53;47.71;101003.78;5032667;28;20530;-49
2021/05/29 10:40:43;;;;;;;1.63;0.60;;;;;;;20.81;47.95;101008.41;5032581;28;20464;-49
2021/05/29 10:43:13;;;;;;;0.40;0.20;;;;;;;20.47;47.68;100993.34;5032612;28;20459;-48
2021/05/29 10:46:03;;;;;;;0.40;0.20;;;;;;;20.03;48.13;101001.28;5032397;28;20862;-48
2021/05/29 10:48:29;;;;;;;0.40;0.20;;;;;;;19.96;50.27;101005.25;5033016;28;20487;-50
2021/05/29 10:53:53;;;;;;;0.40;0.20;;;;;;;19.87;48.20;100998.53;5028570;28;20826;-50
2021/05/29 10:56:20;;;;;;;0.40;0.20;;;;;;;20.56;48.06;100997.31;5032571;28;20448;-50
2021/05/29 10:58:58;;;;;;;0.40;0.20;;;;;;;20.84;48.45;100993.88;5019299;28;20541;-50
2021/05/29 11:01:45;;;;;;;0.40;0.20;;;;;;;21.10;47.52;100987.72;5032557;28;20447;-50
2021/05/29 11:04:12;;;;;;;0.40;0.20;;;;;;;21.02;46.76;100998.16;5025197;28;20870;-50
2021/05/29 11:06:41;;;;;;;0.40;0.30;;;;;;;20.84;47.60;100996.59;5033222;28;20832;-50
2021/05/29 11:09:09;;;;;;;0.50;0.40;;;;;;;20.48;46.58;100978.00;5031061;28;20443;-50
2021/05/29 11:11:36;;;;;;;0.40;0.20;;;;;;;21.04;46.72;100984.56;5032500;28;20509;-51
2021/05/29 11:14:14;;;;;;;0.40;0.27;;;;;;;21.45;46.09;100980.19;5032471;28;20535;-52
2021/05/29 11:16:54;;;;;;;0.50;0.40;;;;;;;20.16;48.14;100986.13;5032420;28;20505;-51
2021/05/29 11:19:33;;;;;;;0.50;0.43;;;;;;;20.74;48.09;100985.44;5018925;28;20514;-50
2021/05/29 11:22:09;;;;;;;2.00;1.70;;;;;;;20.68;47.79;100972.28;5032616;28;20501;-50
2021/05/29 11:24:43;;;;;;;0.40;0.20;;;;;;;21.03;47.62;100988.22;5032382;28;20519;-50
2021/05/29 11:27:16;;;;;;;0.40;0.20;;;;;;;20.92;47.19;100984.31;5032028;28;20467;-50
2021/05/29 11:30:00;;;;;;;0.40;0.20;;;;;;;21.31;47.31;100977.47;5031303;28;20447;-50
2021/05/29 11:32:48;;;;;;;0.83;0.50;;;;;;;21.57;45.21;100979.41;5032284;28;20448;-50
2021/05/29 11:35:24;;;;;;;0.40;0.20;;;;;;;21.63;46.32;100978.16;5032229;28;20451;-50
2021/05/29 11:38:00;;;;;;;0.40;0.30;;;;;;;21.07;47.79;100979.81;5032247;28;20467;-50
2021/05/29 11:40:52;;;;;;;0.40;0.20;;;;;;;20.67;48.03;100976.81;5031918;28;20447;-50
2021/05/29 11:43:40;;;;;;;0.40;0.20;;;;;;;20.87;48.17;100972.06;5032014;28;20514;-50
2021/05/29 11:46:11;;;;;;;0.40;0.20;;;;;;;20.81;46.80;100976.00;5008634;28;20475;-50
2021/05/29 11:48:40;;;;;;;0.40;0.20;;;;;;;21.18;46.18;100968.34;5027219;28;20994;-49